RPLC/CRK METAR and TAF weather

Enter ICAO airport designator
Station Type Date Time Source
RPLC METAR 2019/08/19 22:00 UTC NOAA

RPLC 192200Z 22002KT 4000 HZ SCT020 BKN100 25/24 Q1008 NSOIG RMK A2977


Station Type Date Time Source
RPLC Decoded METAR 2019/08/19 22:00 UTC NOAA

Clarkfield Pampanga International Airport, Philippines (RPLC) 15-11N 120-33E
Aug 19, 2019 - 06:00 PM EDT / 2019.08.19 2200 UTC
Wind: from the SW (220 degrees) at 2 MPH (2 KT):0
Visibility: 2 mile(s):0
Sky conditions: mostly cloudy
Weather: haze
Temperature: 77 F (25 C)
Dew Point: 75 F (24 C)
Relative Humidity: 94%
Pressure (altimeter): 29.77 in. Hg (1008 hPa)
ob: RPLC 192200Z 22002KT 4000 HZ SCT020 BKN100 25/24 Q1008 NSOIG RMK A2977
cycle: 22

Station Type Date Time Source
RPLC TAF 2019/08/19 18:03 UTC NOAA

TAF RPLC 191700Z 1918/2024 24006KT 8000 SCT020 BKN300 TX34/2006Z TN25/1921Z
TEMPO 1918/1924 32008KT 5000 -TSRA FEW015CB SCT020 BKN100

Example: see airport list